createdAt,value
2017-05-30T00:01:03.619Z,3.00
2017-05-30T00:03:31.870Z,3.50
2017-05-30T00:06:00.106Z,6.32
2017-05-30T00:08:28.338Z,3.18
2017-05-30T00:10:56.574Z,2.98
2017-05-30T00:13:24.807Z,3.12
2017-05-30T00:15:53.050Z,3.52
2017-05-30T00:21:14.830Z,3.36
2017-05-30T00:23:43.050Z,3.20
2017-05-30T00:26:11.298Z,3.66
2017-05-30T00:28:39.534Z,3.12
2017-05-30T00:31:07.770Z,3.60
2017-05-30T00:33:36.003Z,3.46
2017-05-30T00:36:04.247Z,3.02
2017-05-30T00:38:32.474Z,3.56
2017-05-30T00:41:00.713Z,2.66
2017-05-30T00:43:28.950Z,4.04
2017-05-30T00:45:57.216Z,3.10
2017-05-30T00:48:25.459Z,3.00
2017-05-30T00:50:53.669Z,3.28
2017-05-30T00:53:21.908Z,3.66
2017-05-30T00:55:50.146Z,4.18
2017-05-30T00:58:18.382Z,4.22
2017-05-30T01:00:46.599Z,3.82
2017-05-30T01:03:14.843Z,3.94
2017-05-30T01:05:43.089Z,4.50
2017-05-30T01:08:11.336Z,4.86
2017-05-30T01:10:39.562Z,4.70
2017-05-30T01:13:07.046Z,3.62
2017-05-30T01:15:35.273Z,3.46
2017-05-30T01:29:35.848Z,3.38
2017-05-30T01:32:04.070Z,4.00
2017-05-30T01:34:32.313Z,3.92
2017-05-30T01:37:00.537Z,6.54
2017-05-30T01:39:28.789Z,3.74
2017-05-30T01:41:56.250Z,4.10
2017-05-30T01:44:24.478Z,4.58
2017-05-30T01:46:52.710Z,5.88
2017-05-30T01:49:20.938Z,4.10
2017-05-30T01:51:49.187Z,3.56
2017-05-30T01:54:17.406Z,5.14
2017-05-30T01:56:45.656Z,3.84
2017-05-30T01:59:13.878Z,3.94
2017-05-30T02:01:42.120Z,5.02
2017-05-30T02:04:10.346Z,3.72
2017-05-30T02:06:38.941Z,3.38
2017-05-30T02:09:07.164Z,3.90
2017-05-30T02:11:35.401Z,3.42
2017-05-30T02:14:03.630Z,3.48
2017-05-30T02:16:31.883Z,4.38
2017-05-30T02:19:00.112Z,3.74
2017-05-30T02:21:28.346Z,3.24
2017-05-30T02:23:56.590Z,3.48
2017-05-30T02:26:24.818Z,3.68
2017-05-30T02:28:53.058Z,4.34
2017-05-30T02:31:21.284Z,3.58
2017-05-30T02:33:49.521Z,3.98
2017-05-30T02:36:17.745Z,3.28
2017-05-30T02:38:45.990Z,4.74
2017-05-30T02:41:14.218Z,3.50
2017-05-30T02:43:42.453Z,4.44
2017-05-30T02:46:10.680Z,4.06
2017-05-30T02:48:39.186Z,4.06
2017-05-30T02:51:07.411Z,4.06
2017-05-30T02:53:35.635Z,3.90
2017-05-30T02:56:23.386Z,4.14
2017-05-30T02:58:51.610Z,4.02
2017-05-30T03:01:19.835Z,4.00
2017-05-30T03:03:48.074Z,3.88
2017-05-30T03:06:16.299Z,3.54
2017-05-30T03:08:44.526Z,4.14
2017-05-30T03:11:12.762Z,3.64
2017-05-30T03:13:40.989Z,4.20
2017-05-30T03:16:09.217Z,3.52
2017-05-30T03:21:30.930Z,3.74
2017-05-30T03:23:59.181Z,4.30
2017-05-30T03:26:27.402Z,3.16
2017-05-30T03:28:55.622Z,3.80
2017-05-30T03:31:23.878Z,4.84
2017-05-30T03:33:52.106Z,4.70
2017-05-30T03:36:20.333Z,3.80
2017-05-30T03:38:48.571Z,4.26
2017-05-30T03:41:16.797Z,5.36
2017-05-30T03:43:45.072Z,4.04
2017-05-30T03:46:19.159Z,3.96
2017-05-30T03:48:47.422Z,3.54
2017-05-30T03:51:15.645Z,3.32
2017-05-30T03:53:43.866Z,3.86
2017-05-30T04:13:31.610Z,4.22
2017-05-30T04:15:59.850Z,4.70
2017-05-30T04:18:48.941Z,5.02
2017-05-30T04:21:17.209Z,4.68
2017-05-30T04:23:45.450Z,4.70
2017-05-30T04:32:19.142Z,5.00
2017-05-30T04:34:47.374Z,4.88
2017-05-30T04:37:15.619Z,5.26
2017-05-30T04:39:43.843Z,5.56
2017-05-30T04:42:12.080Z,5.94
2017-05-30T04:44:40.318Z,5.48
2017-05-30T04:47:08.543Z,5.36
2017-05-30T04:49:36.794Z,5.08
2017-05-30T04:52:05.003Z,5.80
2017-05-30T04:54:33.245Z,5.44
2017-05-30T04:57:01.471Z,5.08
2017-05-30T04:59:29.717Z,5.76
2017-05-30T05:01:57.937Z,5.26
2017-05-30T05:04:26.406Z,7.70
2017-05-30T05:06:54.649Z,5.00
2017-05-30T05:09:22.908Z,6.20
2017-05-30T05:11:51.128Z,8.84
2017-05-30T05:14:19.365Z,6.72
2017-05-30T05:16:47.602Z,7.06
2017-05-30T05:33:48.231Z,13.52
2017-05-30T05:36:16.478Z,14.66
2017-05-30T05:38:44.711Z,12.46
2017-05-30T05:41:12.954Z,13.06
2017-05-30T05:43:41.190Z,15.06
2017-05-30T05:46:09.453Z,18.22
2017-05-30T05:48:37.689Z,18.70
2017-05-30T05:51:05.924Z,17.50
2017-05-30T05:53:34.178Z,17.42
2017-05-30T05:56:02.414Z,19.32
2017-05-30T05:58:30.666Z,18.58
2017-05-30T06:00:58.907Z,19.20
2017-05-30T06:03:27.162Z,19.90
2017-05-30T06:05:55.391Z,20.22
2017-05-30T06:08:23.646Z,21.92
2017-05-30T06:10:51.874Z,20.54
2017-05-30T06:13:20.121Z,24.10
2017-05-30T06:15:48.374Z,29.72
2017-05-30T06:18:16.605Z,32.22
2017-05-30T06:20:44.854Z,28.18
2017-05-30T06:23:13.085Z,31.66
2017-05-30T06:25:41.333Z,28.84
2017-05-30T06:28:09.574Z,29.78
2017-05-30T06:30:37.818Z,30.86
2017-05-30T06:33:06.053Z,27.06
2017-05-30T06:35:34.297Z,27.66
2017-05-30T06:38:02.546Z,30.10
2017-05-30T06:40:30.786Z,30.26
2017-05-30T06:42:59.044Z,30.04
2017-05-30T06:45:27.281Z,29.74
2017-05-30T06:47:55.527Z,27.94
2017-05-30T06:50:23.756Z,27.50
2017-05-30T06:52:52.000Z,25.98
2017-05-30T06:55:20.233Z,24.20
2017-05-30T06:57:48.477Z,24.94
2017-05-30T07:00:16.717Z,23.16
2017-05-30T07:02:44.978Z,23.00
2017-05-30T07:05:13.209Z,24.08
2017-05-30T07:07:41.438Z,21.66
2017-05-30T07:10:09.687Z,20.46
2017-05-30T07:12:37.918Z,21.00
2017-05-30T07:15:06.174Z,23.62
2017-05-30T07:17:34.406Z,21.90
2017-05-30T07:20:02.650Z,24.76
2017-05-30T07:22:30.941Z,19.76
2017-05-30T07:24:59.143Z,21.10
2017-05-30T07:27:27.378Z,22.62
2017-05-30T07:29:55.630Z,20.02
2017-05-30T07:32:23.862Z,21.12
2017-05-30T07:34:52.099Z,22.00
2017-05-30T07:37:20.351Z,21.82
2017-05-30T07:39:48.577Z,17.68
2017-05-30T07:42:16.818Z,18.56
2017-05-30T07:44:45.051Z,18.96
2017-05-30T07:47:13.299Z,19.08
2017-05-30T07:49:41.529Z,20.12
2017-05-30T07:52:09.774Z,21.66
2017-05-30T07:54:38.021Z,20.18
2017-05-30T07:57:06.270Z,22.40
2017-05-30T07:59:34.501Z,22.56
2017-05-30T08:02:02.738Z,21.28
2017-05-30T08:04:30.986Z,24.76
2017-05-30T08:06:59.224Z,26.94
2017-05-30T08:09:27.469Z,24.78
2017-05-30T08:11:55.702Z,26.90
2017-05-30T08:14:23.951Z,27.72
2017-05-30T08:16:52.190Z,25.40
2017-05-30T08:19:20.437Z,25.68
2017-05-30T08:21:48.668Z,28.48
2017-05-30T08:24:16.906Z,28.42
2017-05-30T08:26:45.149Z,27.00
2017-05-30T08:29:13.402Z,27.96
2017-05-30T08:31:41.633Z,31.00
2017-05-30T08:34:09.885Z,29.88
2017-05-30T08:36:38.119Z,32.08
2017-05-30T08:39:06.362Z,33.16
2017-05-30T08:41:34.601Z,34.38
2017-05-30T08:44:02.830Z,31.54
2017-05-30T08:46:31.071Z,34.20
2017-05-30T08:48:59.305Z,30.74
2017-05-30T08:51:27.553Z,33.02
2017-05-30T08:53:55.790Z,31.54
2017-05-30T08:56:24.036Z,33.40
2017-05-30T08:58:52.266Z,32.34
2017-05-30T09:01:20.523Z,32.38
2017-05-30T09:03:47.991Z,30.80
2017-05-30T09:06:16.237Z,35.46
2017-05-30T09:08:44.474Z,32.86
2017-05-30T09:11:12.737Z,31.08
2017-05-30T09:13:40.979Z,26.42
2017-05-30T09:16:09.206Z,23.78
2017-05-30T09:18:37.447Z,25.84
2017-05-30T09:21:05.686Z,24.94
2017-05-30T09:23:33.934Z,24.42
2017-05-30T09:26:02.162Z,17.98
2017-05-30T09:28:30.414Z,18.74
2017-05-30T09:30:58.647Z,17.60
2017-05-30T09:33:26.906Z,17.50
2017-05-30T09:35:55.137Z,19.00
2017-05-30T09:38:23.390Z,16.60
2017-05-30T09:40:51.628Z,18.08
2017-05-30T09:43:19.871Z,18.14
2017-05-30T09:45:48.110Z,16.66
2017-05-30T09:48:16.338Z,15.10
2017-05-30T09:50:44.595Z,14.96
2017-05-30T09:53:12.826Z,13.62
2017-05-30T09:55:41.078Z,12.64
2017-05-30T09:58:09.313Z,12.54
2017-05-30T10:00:37.558Z,14.92
2017-05-30T10:03:05.789Z,14.50
2017-05-30T10:05:34.041Z,13.76
2017-05-30T10:08:02.277Z,14.04
2017-05-30T10:10:30.533Z,12.76
2017-05-30T10:12:58.780Z,17.26
2017-05-30T10:15:27.041Z,15.34
2017-05-30T10:17:58.910Z,14.36
2017-05-30T10:20:27.171Z,13.08
2017-05-30T10:22:55.413Z,12.44
2017-05-30T10:25:23.652Z,11.06
2017-05-30T10:27:51.902Z,11.60
2017-05-30T10:30:20.134Z,11.12
2017-05-30T10:32:48.385Z,9.58
2017-05-30T10:35:16.609Z,9.08
2017-05-30T10:37:44.850Z,8.14
2017-05-30T10:40:13.077Z,8.24
2017-05-30T10:42:41.315Z,7.88
2017-05-30T10:45:09.549Z,11.56
2017-05-30T10:47:37.778Z,8.02
2017-05-30T10:50:06.010Z,7.52
2017-05-30T10:52:34.314Z,10.38
2017-05-30T10:55:02.491Z,9.20
2017-05-30T10:57:30.730Z,9.14
2017-05-30T10:59:58.966Z,8.12
2017-05-30T11:02:27.209Z,7.80
2017-05-30T11:04:55.449Z,8.50
2017-05-30T11:07:23.672Z,9.70
2017-05-30T11:09:51.930Z,12.68
2017-05-30T11:12:20.168Z,11.16
2017-05-30T11:14:48.416Z,12.24
2017-05-30T11:17:20.007Z,13.32
2017-05-30T11:19:48.258Z,13.38
2017-05-30T11:22:16.488Z,14.90
2017-05-30T11:24:44.741Z,16.54
2017-05-30T11:27:12.990Z,17.80
2017-05-30T11:29:41.226Z,16.86
2017-05-30T11:32:09.467Z,17.18
2017-05-30T11:34:37.696Z,18.62
2017-05-30T11:37:05.937Z,18.56
2017-05-30T11:39:34.174Z,21.18
2017-05-30T11:42:01.662Z,19.62
2017-05-30T11:44:29.906Z,22.72
2017-05-30T11:46:58.152Z,21.48
2017-05-30T11:49:26.377Z,23.02
2017-05-30T11:51:54.617Z,24.34
2017-05-30T11:54:22.859Z,18.90
2017-05-30T11:56:51.122Z,20.66
2017-05-30T11:59:19.353Z,20.16
2017-05-30T12:01:47.582Z,30.56
2017-05-30T12:04:15.826Z,33.68
2017-05-30T12:06:44.066Z,32.66
2017-05-30T12:09:12.311Z,31.00
2017-05-30T12:11:40.550Z,31.42
2017-05-30T12:14:08.795Z,31.08
2017-05-30T12:16:37.022Z,30.04
2017-05-30T12:19:05.278Z,27.04
2017-05-30T12:21:33.515Z,29.66
2017-05-30T12:24:01.848Z,33.38
2017-05-30T12:26:30.002Z,32.42
2017-05-30T12:28:58.249Z,30.16
2017-05-30T12:31:26.482Z,31.76
2017-05-30T12:33:54.726Z,32.86
2017-05-30T12:36:22.954Z,38.24
2017-05-30T12:38:51.201Z,39.28
2017-05-30T12:41:19.442Z,42.88
2017-05-30T12:43:47.695Z,42.74
2017-05-30T12:46:15.921Z,35.94
2017-05-30T12:48:44.181Z,33.06
2017-05-30T12:51:12.419Z,29.02
2017-05-30T12:53:40.654Z,26.76
2017-05-30T12:56:08.898Z,27.52
2017-05-30T12:58:37.133Z,26.28
2017-05-30T13:01:05.378Z,25.76
2017-05-30T13:03:33.613Z,25.38
2017-05-30T13:06:01.876Z,25.06
2017-05-30T13:08:30.132Z,26.78
2017-05-30T13:10:58.391Z,25.44
2017-05-30T13:13:26.673Z,24.92
2017-05-30T13:15:54.943Z,27.10
2017-05-30T13:18:23.217Z,24.42
2017-05-30T13:20:51.467Z,23.84
2017-05-30T13:23:19.697Z,21.68
2017-05-30T13:25:47.948Z,20.34
2017-05-30T13:28:16.169Z,20.24
2017-05-30T13:30:44.397Z,20.48
2017-05-30T13:33:12.958Z,21.04
2017-05-30T13:35:41.198Z,20.90
2017-05-30T13:38:09.441Z,18.70
2017-05-30T13:40:37.679Z,17.48
2017-05-30T13:43:05.942Z,17.16
2017-05-30T13:45:34.186Z,14.92
2017-05-30T13:48:02.425Z,14.90
2017-05-30T13:50:30.654Z,13.56
2017-05-30T13:52:58.906Z,11.30
2017-05-30T13:55:27.142Z,11.94
2017-05-30T13:57:55.368Z,11.32
2017-05-30T14:00:23.610Z,12.30
2017-05-30T14:02:51.838Z,12.30
2017-05-30T14:05:20.078Z,12.04
2017-05-30T14:07:48.318Z,16.56
2017-05-30T14:10:16.557Z,14.50
2017-05-30T14:12:44.785Z,14.78
2017-05-30T14:15:13.025Z,15.82
2017-05-30T14:17:41.253Z,15.36
2017-05-30T14:20:09.495Z,14.48
2017-05-30T14:22:37.733Z,15.90
2017-05-30T14:25:05.957Z,17.20
2017-05-30T14:27:34.203Z,15.86
2017-05-30T14:30:02.452Z,16.78
2017-05-30T14:32:30.693Z,18.38
2017-05-30T14:34:58.925Z,14.42
2017-05-30T14:37:27.167Z,16.66
2017-05-30T14:39:55.393Z,15.92
2017-05-30T14:42:23.635Z,14.80
2017-05-30T14:44:51.853Z,13.22
2017-05-30T14:47:20.085Z,13.68
2017-05-30T14:49:48.336Z,13.08
2017-05-30T14:52:16.567Z,11.76
2017-05-30T14:54:44.810Z,12.32
2017-05-30T14:57:13.048Z,10.96
2017-05-30T14:59:41.294Z,8.74
2017-05-30T15:02:09.514Z,5.68
2017-05-30T15:04:37.754Z,5.46
2017-05-30T15:07:05.978Z,4.90
2017-05-30T15:09:34.217Z,4.90
2017-05-30T15:12:02.445Z,5.40
2017-05-30T15:14:30.678Z,8.74
2017-05-30T15:16:58.898Z,7.94
2017-05-30T15:19:27.125Z,8.90
2017-05-30T15:21:55.367Z,10.60
2017-05-30T15:24:23.609Z,10.24
2017-05-30T15:26:51.850Z,9.56
2017-05-30T15:29:20.078Z,11.96
2017-05-30T15:31:48.319Z,12.44
2017-05-30T15:34:16.547Z,10.56
2017-05-30T15:36:44.782Z,9.78
2017-05-30T15:39:13.010Z,20.86
2017-05-30T15:41:41.249Z,13.02
2017-05-30T15:44:09.489Z,11.38
2017-05-30T15:46:37.741Z,13.70
2017-05-30T15:49:05.962Z,12.60
2017-05-30T15:51:34.210Z,14.02
2017-05-30T15:54:02.446Z,16.42
2017-05-30T15:56:30.671Z,12.98
2017-05-30T15:58:58.913Z,15.04
2017-05-30T16:01:27.158Z,14.72
2017-05-30T16:03:55.388Z,11.28
2017-05-30T16:06:23.622Z,7.96
2017-05-30T16:08:51.858Z,8.62
2017-05-30T16:11:20.480Z,8.82
2017-05-30T16:13:48.725Z,9.20
2017-05-30T16:16:16.942Z,7.90
2017-05-30T16:18:45.174Z,8.44
2017-05-30T16:21:13.393Z,7.78
2017-05-30T16:23:41.662Z,8.38
2017-05-30T16:26:09.899Z,8.34
2017-05-30T16:28:38.143Z,6.74
2017-05-30T16:31:06.370Z,8.34
2017-05-30T16:33:34.587Z,7.02
2017-05-30T16:36:02.822Z,6.78
2017-05-30T16:38:31.052Z,6.94
2017-05-30T16:40:59.291Z,5.96
2017-05-30T16:43:27.507Z,6.12
2017-05-30T16:45:55.741Z,6.56
2017-05-30T16:48:23.969Z,5.64
2017-05-30T16:50:52.209Z,6.20
2017-05-30T16:53:20.429Z,7.30
2017-05-30T16:55:48.678Z,5.92
2017-05-30T16:58:16.905Z,6.58
2017-05-30T17:00:45.141Z,7.78
2017-05-30T17:03:13.369Z,5.92
2017-05-30T17:05:41.609Z,6.78
2017-05-30T17:08:09.837Z,7.34
2017-05-30T17:10:38.072Z,5.96
2017-05-30T17:13:06.307Z,8.14
2017-05-30T17:15:34.530Z,6.42
2017-05-30T17:18:06.089Z,6.70
2017-05-30T17:20:34.313Z,7.14
2017-05-30T17:23:02.549Z,7.58
2017-05-30T17:25:30.777Z,7.30
2017-05-30T17:27:59.018Z,7.46
2017-05-30T17:30:27.246Z,8.16
2017-05-30T17:32:55.477Z,7.94
2017-05-30T17:35:23.702Z,9.26
2017-05-30T17:37:51.949Z,9.30
2017-05-30T17:40:20.177Z,7.06
2017-05-30T17:42:48.422Z,6.52
2017-05-30T17:45:16.645Z,7.72
2017-05-30T17:47:44.873Z,8.56
2017-05-30T17:50:13.106Z,6.24
2017-05-30T17:52:41.322Z,5.30
2017-05-30T17:55:09.564Z,4.80
2017-05-30T17:57:37.793Z,4.38
2017-05-30T18:00:06.026Z,5.62
2017-05-30T18:02:34.246Z,5.00
2017-05-30T18:05:02.498Z,5.42
2017-05-30T18:07:30.717Z,4.66
2017-05-30T18:09:58.953Z,5.36
2017-05-30T18:12:27.194Z,4.96
2017-05-30T18:14:55.413Z,4.74
2017-05-30T18:17:23.660Z,4.30
2017-05-30T18:19:51.873Z,7.08
2017-05-30T18:22:20.102Z,5.40
2017-05-30T18:24:48.326Z,5.10
2017-05-30T18:27:16.577Z,4.92
2017-05-30T18:29:44.805Z,4.92
2017-05-30T18:32:13.022Z,5.54
2017-05-30T18:34:41.268Z,6.30
2017-05-30T18:37:09.497Z,5.60
2017-05-30T18:39:37.739Z,5.56
2017-05-30T18:42:05.961Z,6.04
2017-05-30T18:44:34.203Z,6.24
2017-05-30T18:47:02.417Z,5.74
2017-05-30T18:49:30.665Z,6.52
2017-05-30T18:51:58.886Z,9.22
2017-05-30T18:54:27.127Z,7.02
2017-05-30T18:56:55.349Z,5.70
2017-05-30T18:59:23.608Z,8.26
2017-05-30T19:01:51.830Z,6.90
2017-05-30T19:04:20.050Z,7.44
2017-05-30T19:06:48.282Z,8.12
2017-05-30T19:09:16.516Z,7.50
2017-05-30T19:11:44.742Z,9.12
2017-05-30T19:14:12.966Z,6.98
2017-05-30T19:16:41.210Z,9.00
2017-05-30T19:19:09.449Z,7.62
2017-05-30T19:21:37.687Z,8.80
2017-05-30T19:24:05.901Z,8.12
2017-05-30T19:26:34.154Z,9.58
2017-05-30T19:29:02.375Z,9.88
2017-05-30T19:31:30.596Z,9.48
2017-05-30T19:33:58.833Z,9.42
2017-05-30T19:36:27.061Z,7.58
2017-05-30T19:38:55.290Z,8.08
2017-05-30T19:41:23.510Z,7.68
2017-05-30T19:43:51.743Z,9.32
2017-05-30T19:46:19.969Z,8.56
2017-05-30T19:48:48.201Z,8.62
2017-05-30T19:51:16.449Z,8.22
2017-05-30T19:53:43.929Z,8.22
2017-05-30T19:56:12.162Z,8.56
2017-05-30T19:58:40.416Z,10.28
2017-05-30T20:01:08.650Z,10.12
2017-05-30T20:03:36.873Z,10.78
2017-05-30T20:06:05.122Z,12.76
2017-05-30T20:08:33.357Z,13.12
2017-05-30T20:11:01.593Z,11.80
2017-05-30T20:13:29.842Z,11.34
2017-05-30T20:15:58.085Z,12.12
2017-05-30T20:18:26.318Z,10.54
2017-05-30T20:20:54.561Z,9.36
2017-05-30T20:23:22.785Z,11.12
2017-05-30T20:25:51.033Z,10.54
2017-05-30T20:28:19.253Z,10.50
2017-05-30T20:30:47.493Z,10.50
2017-05-30T20:33:15.715Z,12.62
2017-05-30T20:35:43.957Z,10.90
2017-05-30T20:38:12.198Z,9.20
2017-05-30T20:40:40.417Z,9.70
2017-05-30T20:43:08.655Z,10.14
2017-05-30T20:45:36.889Z,10.10
2017-05-30T20:48:05.130Z,10.98
2017-05-30T20:50:33.358Z,10.66
2017-05-30T20:53:01.602Z,10.52
2017-05-30T20:55:29.830Z,11.60
2017-05-30T20:57:58.066Z,10.84
2017-05-30T21:00:26.306Z,10.76
2017-05-30T21:02:54.534Z,8.88
2017-05-30T21:05:22.758Z,9.22
2017-05-30T21:13:39.078Z,8.62
2017-05-30T21:22:17.465Z,7.32
2017-05-30T21:24:45.707Z,13.14
2017-05-30T21:27:13.942Z,6.98
2017-05-30T21:29:42.178Z,6.36
2017-05-30T21:32:10.402Z,7.06
2017-05-30T21:34:38.642Z,7.28
2017-05-30T21:37:07.701Z,6.80
2017-05-30T21:39:35.921Z,7.78
2017-05-30T21:42:04.162Z,7.84
2017-05-30T21:44:32.389Z,8.02
2017-05-30T21:47:00.626Z,8.18
2017-05-30T21:49:28.857Z,7.62
2017-05-30T21:51:57.101Z,7.62
2017-05-30T21:54:25.331Z,8.28
2017-05-30T21:56:53.565Z,9.90
2017-05-30T21:59:21.793Z,10.14
2017-05-30T22:01:50.025Z,8.12
2017-05-30T22:04:18.246Z,7.00
2017-05-30T22:06:46.499Z,8.10
2017-05-30T22:09:14.725Z,8.46
2017-05-30T22:11:42.949Z,10.50
2017-05-30T22:14:11.190Z,7.12
2017-05-30T22:16:39.418Z,8.16
2017-05-30T22:19:07.657Z,10.28
2017-05-30T22:21:35.886Z,7.38
2017-05-30T22:24:04.126Z,8.22
2017-05-30T22:26:32.341Z,7.54
2017-05-30T22:29:00.577Z,7.28
2017-05-30T22:31:28.806Z,7.34
2017-05-30T22:33:57.045Z,11.30
2017-05-30T22:36:25.266Z,8.34
2017-05-30T22:38:53.499Z,8.08
2017-05-30T22:41:21.729Z,8.12
2017-05-30T22:43:49.946Z,8.04
2017-05-30T22:46:18.177Z,10.42
2017-05-30T22:48:46.407Z,10.06
2017-05-30T22:51:14.652Z,9.18
2017-05-30T22:53:42.880Z,9.46
2017-05-30T22:56:11.113Z,6.90
2017-05-30T22:58:39.338Z,8.68
2017-05-30T23:01:07.574Z,6.60
2017-05-30T23:03:35.798Z,8.60
2017-05-30T23:06:04.049Z,7.70
2017-05-30T23:08:32.267Z,6.30
2017-05-30T23:11:00.489Z,9.58
2017-05-30T23:13:28.727Z,8.60
2017-05-30T23:16:02.789Z,6.28
2017-05-30T23:18:31.322Z,7.78
2017-05-30T23:20:59.542Z,6.66
2017-05-30T23:23:27.773Z,6.30
2017-05-30T23:26:09.076Z,6.84
2017-05-30T23:28:37.313Z,6.58
2017-05-30T23:31:05.529Z,5.82
2017-05-30T23:33:33.767Z,5.34
2017-05-30T23:36:01.997Z,6.56
2017-05-30T23:38:30.230Z,7.54
2017-05-30T23:40:58.442Z,5.40
2017-05-30T23:43:26.689Z,6.36
2017-05-30T23:45:54.901Z,7.84
2017-05-30T23:48:23.130Z,9.24
2017-05-30T23:50:51.349Z,5.22
2017-05-30T23:53:19.571Z,5.60
2017-05-30T23:55:47.801Z,5.90
2017-05-30T23:58:16.025Z,6.00
